Vernon, Iowa
Current Conditions -  °F | °C
As of 7:35 AM on Saturday 25 Oct 2014 (Local Time) from KFFL Reporting Station
NA  
Wind Chill: 44°   Ceiling: NA
Heat Index: 46°   Visibility: NA
Dew Point: 45°   Wind: 6mph
Humidity: 93%   Direction: 270°W
Pressure: 30.01"   Gusts: NA
Location:  40.7687°N, 92.0788°W
Report Text: KFFL 251235Z AUTO 27005KT 08/07 A3001 RMK AO2
Loading
Personal Weather Stations






























Interactive Weather Map
Tropical Storm Tracking
New forecast layout! Learn more

10-Day Weather Forecast

Advertisements
Track Severe Weather on mobile